Terminal Aerodrome Forecast
Issued by NWS

Home | Current Version | Previous Version | Text Only | Print | Product List | Glossary On
Versions: 1 2 3 4 5 6 7 8 9 10 11 12 13 14 15 16 17 18 19 20 21 22 23
429
FTUS43 KDTX 262058 AAC
TAFDET
TAF AMD
KDET 262058Z 2621/2718 14008KT 5SM -SHRA BR BKN007 OVC025
     FM262300 16008KT 6SM -SHRA BR BKN015 OVC025
      TEMPO 2623/2701 3SM SHRA BR OVC015
     FM270200 19005KT 5SM -SHRA BR OVC012
     FM270500 22005KT 4SM BR BKN008 OVC050
     FM271500 24007KT P6SM BKN015 OVC050=

USA.gov is the U.S. government's official web portal to all federal, state and local government web resources and services.